Time;durP1;ratioP1;P1;durP2;ratioP2;P2;SDS_P1;SDS_P2;PMS_P1;PMS_P2;Temp;Humidity;BMP_temperature;BMP_pressure;BME280_temperature;BME280_humidity;BME280_pressure;Samples;Min_cycle;Max_cycle;Signal;HPM_P1;HPM_P2
2022/03/26 00:02:08;;;;;;;31.27;20.60;;;9.10;51.40;;;;;;5071920;28;20444;-50
2022/03/26 00:04:37;;;;;;;36.55;21.98;;;9.00;51.40;;;;;;5070928;28;20037;-49
2022/03/26 00:07:04;;;;;;;33.45;20.83;;;9.00;51.40;;;;;;5056649;28;20045;-48
2022/03/26 00:09:31;;;;;;;36.88;22.48;;;9.00;51.50;;;;;;5064741;28;20052;-49
2022/03/26 00:11:58;;;;;;;40.53;22.30;;;9.00;51.60;;;;;;5068233;28;20037;-49
2022/03/26 00:14:25;;;;;;;35.78;21.90;;;8.90;51.60;;;;;;5055710;28;20049;-47
2022/03/26 00:16:51;;;;;;;33.45;23.05;;;8.90;51.70;;;;;;5049045;28;20118;-47
2022/03/26 00:19:19;;;;;;;33.45;20.27;;;8.90;51.70;;;;;;5057579;28;20040;-48
2022/03/26 00:21:48;;;;;;;32.33;21.70;;;8.80;51.70;;;;;;5060709;28;20450;-48
2022/03/26 00:24:15;;;;;;;32.60;20.65;;;8.80;51.80;;;;;;5058485;28;20044;-47
2022/03/26 00:26:42;;;;;;;34.95;21.13;;;8.80;51.70;;;;;;5045218;28;20407;-47
2022/03/26 00:29:10;;;;;;;31.77;21.10;;;8.80;51.90;;;;;;5065184;28;20037;-50
2022/03/26 00:31:37;;;;;;;28.70;19.35;;;8.80;51.90;;;;;;5070098;28;20110;-47
2022/03/26 00:34:09;;;;;;;27.13;18.52;;;8.80;51.90;;;;;;5051729;28;20123;-49
2022/03/26 00:36:36;;;;;;;26.58;18.17;;;8.70;51.90;;;;;;5053765;28;20040;-48
2022/03/26 00:39:08;;;;;;;32.53;20.05;;;8.70;51.90;;;;;;5065702;28;20412;-51
2022/03/26 00:41:35;;;;;;;30.55;19.83;;;8.60;51.90;;;;;;5070713;28;20051;-49
2022/03/26 00:44:02;;;;;;;28.65;20.13;;;8.60;52.00;;;;;;5069213;28;20098;-48
2022/03/26 00:46:28;;;;;;;30.60;20.70;;;8.60;52.10;;;;;;5048455;28;20090;-47
2022/03/26 00:48:59;;;;;;;33.20;20.20;;;8.60;52.10;;;;;;5065882;28;20037;-49
2022/03/26 00:51:28;;;;;;;28.75;18.70;;;8.50;52.10;;;;;;5070701;28;20520;-48
2022/03/26 00:53:57;;;;;;;29.35;20.48;;;8.50;52.10;;;;;;5057236;28;20451;-50
2022/03/26 00:56:24;;;;;;;33.45;19.90;;;8.50;52.20;;;;;;5058396;28;20045;-47
2022/03/26 00:58:50;;;;;;;32.17;19.10;;;8.50;52.20;;;;;;5062942;28;20451;-50
2022/03/26 01:01:17;;;;;;;28.20;18.20;;;8.40;52.20;;;;;;5058803;28;20068;-50
2022/03/26 01:03:44;;;;;;;28.42;18.98;;;8.40;52.30;;;;;;5044687;28;20040;-48
2022/03/26 01:06:11;;;;;;;29.10;18.80;;;8.40;52.40;;;;;;5061396;28;20573;-47
2022/03/26 01:08:38;;;;;;;27.52;18.00;;;8.30;52.50;;;;;;5070002;28;20040;-48
2022/03/26 01:11:05;;;;;;;29.75;19.33;;;8.30;52.60;;;;;;5051727;28;20122;-47
2022/03/26 01:13:34;;;;;;;28.17;18.33;;;8.30;52.60;;;;;;5053003;28;20706;-47
2022/03/26 01:16:02;;;;;;;26.58;18.88;;;8.30;52.60;;;;;;5061403;28;20040;-48
2022/03/26 01:18:30;;;;;;;34.92;20.60;;;8.30;52.70;;;;;;5069929;28;20074;-47
2022/03/26 01:20:56;;;;;;;30.98;19.15;;;8.20;52.60;;;;;;5070500;28;20040;-49
2022/03/26 01:23:26;;;;;;;27.17;17.92;;;8.20;52.60;;;;;;5057152;28;20044;-49
2022/03/26 01:25:53;;;;;;;30.95;19.65;;;8.20;52.70;;;;;;5062606;28;20115;-50
2022/03/26 01:28:22;;;;;;;31.40;19.13;;;8.10;52.60;;;;;;5070234;28;20098;-48
2022/03/26 01:30:48;;;;;;;30.75;19.67;;;8.10;52.60;;;;;;5050933;28;20045;-46
2022/03/26 01:33:15;;;;;;;33.00;20.30;;;8.00;52.60;;;;;;5050165;28;20124;-52
2022/03/26 01:35:42;;;;;;;29.65;19.17;;;8.00;52.70;;;;;;5067534;28;20542;-50
2022/03/26 01:38:08;;;;;;;32.67;19.58;;;8.00;52.70;;;;;;5069821;28;20058;-50
2022/03/26 01:40:36;;;;;;;30.95;19.02;;;8.00;52.90;;;;;;5064164;28;20041;-46
2022/03/26 01:43:06;;;;;;;32.30;19.38;;;7.90;52.90;;;;;;5060717;28;20048;-46
2022/03/26 01:45:33;;;;;;;28.00;18.48;;;7.90;52.90;;;;;;5069042;28;20040;-49
2022/03/26 01:48:02;;;;;;;29.88;20.13;;;7.90;53.00;;;;;;5064627;28;20046;-46
2022/03/26 01:50:30;;;;;;;34.58;20.95;;;7.90;53.10;;;;;;5047763;28;20049;-49
2022/03/26 01:52:58;;;;;;;34.72;20.30;;;7.90;53.20;;;;;;5069887;28;20068;-48
2022/03/26 01:55:27;;;;;;;32.28;19.25;;;7.80;53.30;;;;;;5068676;28;20048;-48
2022/03/26 01:57:54;;;;;;;31.48;21.05;;;7.80;53.50;;;;;;5068815;28;20454;-48
2022/03/26 02:00:22;;;;;;;29.20;19.55;;;7.80;53.40;;;;;;5055647;28;20103;-49
2022/03/26 02:02:49;;;;;;;31.67;18.35;;;7.80;53.30;;;;;;5067389;28;20040;-51
2022/03/26 02:05:20;;;;;;;30.63;18.58;;;7.80;53.30;;;;;;5072715;28;20109;-50
2022/03/26 02:07:49;;;;;;;28.30;17.83;;;7.80;53.60;;;;;;5065407;28;20055;-48
2022/03/26 02:10:20;;;;;;;31.55;18.67;;;7.80;53.40;;;;;;5055017;28;20052;-46
2022/03/26 02:12:47;;;;;;;35.63;21.07;;;7.70;53.40;;;;;;5052962;28;20463;-49
2022/03/26 02:15:15;;;;;;;32.05;19.02;;;7.70;53.30;;;;;;5069959;28;20094;-51
2022/03/26 02:17:47;;;;;;;34.25;20.02;;;7.70;53.50;;;;;;5047712;28;20068;-51
2022/03/26 02:20:17;;;;;;;36.03;20.75;;;7.60;53.50;;;;;;5072371;28;20098;-47
2022/03/26 02:22:52;;;;;;;31.45;19.25;;;7.60;53.70;;;;;;5073235;28;20101;-47
2022/03/26 02:25:18;;;;;;;35.08;20.00;;;7.60;53.50;;;;;;5060003;28;20106;-50
2022/03/26 02:27:45;;;;;;;29.80;18.90;;;7.60;53.50;;;;;;5057988;28;20078;-47
2022/03/26 02:30:12;;;;;;;30.90;19.30;;;7.60;53.70;;;;;;5046309;28;20080;-49
2022/03/26 02:32:39;;;;;;;30.25;18.45;;;7.60;53.90;;;;;;5057077;28;20045;-51
2022/03/26 02:35:09;;;;;;;31.73;19.90;;;7.50;53.70;;;;;;5072943;28;20102;-46
2022/03/26 02:37:36;;;;;;;32.80;19.17;;;7.50;53.70;;;;;;5073614;28;20463;-48
2022/03/26 02:40:06;;;;;;;34.85;19.38;;;7.50;53.80;;;;;;5065191;28;20069;-49
2022/03/26 02:42:35;;;;;;;33.28;18.85;;;7.50;53.90;;;;;;5068276;28;20037;-47
2022/03/26 02:45:05;;;;;;;35.05;19.73;;;7.50;53.90;;;;;;5072702;28;20093;-50
2022/03/26 02:47:32;;;;;;;36.75;20.10;;;7.40;53.90;;;;;;5052005;28;20459;-51
2022/03/26 02:49:59;;;;;;;36.40;20.80;;;7.40;53.90;;;;;;5066142;28;20037;-48
2022/03/26 02:52:30;;;;;;;32.67;20.10;;;7.40;53.90;;;;;;5072921;28;20081;-51
2022/03/26 02:54:59;;;;;;;31.58;19.10;;;7.40;54.20;;;;;;5058087;28;20409;-50
2022/03/26 02:57:26;;;;;;;36.47;20.63;;;7.40;53.90;;;;;;5063142;28;20036;-47
2022/03/26 02:59:53;;;;;;;30.00;19.10;;;7.40;54.00;;;;;;5072750;28;20044;-50
2022/03/26 03:02:22;;;;;;;34.13;21.08;;;7.30;54.10;;;;;;5072581;28;20040;-47
2022/03/26 03:04:49;;;;;;;33.42;19.58;;;7.30;54.30;;;;;;5055505;28;20091;-46
2022/03/26 03:07:16;;;;;;;35.65;20.27;;;7.30;54.20;;;;;;5063104;28;20041;-47
2022/03/26 03:09:45;;;;;;;36.50;20.88;;;7.30;54.30;;;;;;5069263;28;20036;-46
2022/03/26 03:12:14;;;;;;;33.53;19.60;;;7.30;54.40;;;;;;5052616;28;20033;-50
2022/03/26 03:14:43;;;;;;;35.20;19.45;;;7.30;54.30;;;;;;5052525;28;20037;-46
2022/03/26 03:17:10;;;;;;;31.27;18.83;;;7.20;54.30;;;;;;5063532;28;20036;-47
2022/03/26 03:19:37;;;;;;;32.17;19.30;;;7.20;54.30;;;;;;5072053;28;20045;-50
2022/03/26 03:22:04;;;;;;;35.60;18.80;;;7.20;54.30;;;;;;5072604;28;20381;-47
2022/03/26 03:24:33;;;;;;;33.10;19.00;;;7.20;54.30;;;;;;5049787;28;20050;-52
2022/03/26 03:27:02;;;;;;;28.50;17.00;;;7.20;54.30;;;;;;5067137;28;20036;-48
2022/03/26 03:29:28;;;;;;;32.53;18.50;;;7.10;54.20;;;;;;5070955;28;20040;-50
2022/03/26 03:31:55;;;;;;;33.95;18.35;;;7.10;54.20;;;;;;5047006;28;20065;-51
2022/03/26 03:34:22;;;;;;;33.58;18.63;;;7.10;54.30;;;;;;5068568;28;20048;-47
2022/03/26 03:36:51;;;;;;;33.38;17.85;;;7.10;54.30;;;;;;5071546;28;20048;-47
2022/03/26 03:39:18;;;;;;;29.73;17.67;;;7.00;54.40;;;;;;5060297;28;20041;-49
2022/03/26 03:41:45;;;;;;;30.27;18.15;;;7.00;54.40;;;;;;5061669;28;20028;-49
2022/03/26 03:44:16;;;;;;;34.17;19.83;;;7.00;54.40;;;;;;5055311;28;20049;-52
2022/03/26 03:46:49;;;;;;;30.65;18.98;;;7.00;54.70;;;;;;5070491;28;20033;-47
2022/03/26 03:49:16;;;;;;;34.47;18.83;;;6.90;54.60;;;;;;5072147;28;20401;-47
2022/03/26 03:51:46;;;;;;;30.75;17.75;;;6.90;54.50;;;;;;5056633;28;20374;-46
2022/03/26 03:54:13;;;;;;;32.88;18.73;;;6.90;54.50;;;;;;5071174;28;20098;-47
2022/03/26 03:56:43;;;;;;;31.38;18.48;;;6.80;54.50;;;;;;5070487;28;20044;-49
2022/03/26 03:59:12;;;;;;;29.35;19.20;;;6.90;54.70;;;;;;5061576;28;20120;-50
2022/03/26 04:01:41;;;;;;;33.38;19.27;;;6.80;54.70;;;;;;5044898;28;20710;-46
2022/03/26 04:04:08;;;;;;;32.28;18.65;;;6.80;54.80;;;;;;5058201;28;20566;-51
2022/03/26 04:06:35;;;;;;;34.08;18.42;;;6.80;54.80;;;;;;5070855;28;20044;-46
2022/03/26 04:09:05;;;;;;;29.60;17.38;;;6.80;54.90;;;;;;5040377;28;20079;-48
2022/03/26 04:11:32;;;;;;;31.60;18.83;;;6.80;54.90;;;;;;5047720;28;20068;-47
2022/03/26 04:13:59;;;;;;;31.33;18.75;;;6.80;54.90;;;;;;5064676;28;20060;-48
2022/03/26 04:16:25;;;;;;;34.47;19.08;;;6.70;54.90;;;;;;5057686;28;20070;-48
2022/03/26 04:18:52;;;;;;;32.78;18.48;;;6.70;54.90;;;;;;5051625;28;20041;-46
2022/03/26 04:21:22;;;;;;;31.70;19.17;;;6.70;54.90;;;;;;5049068;28;20036;-49
2022/03/26 04:23:48;;;;;;;29.75;17.52;;;6.70;55.00;;;;;;5069695;28;20029;-47
2022/03/26 04:26:15;;;;;;;31.92;18.45;;;6.70;55.00;;;;;;5068271;28;20106;-49
2022/03/26 04:28:46;;;;;;;34.00;17.95;;;6.60;54.90;;;;;;5065867;28;20126;-46
2022/03/26 04:31:13;;;;;;;28.23;16.58;;;6.60;55.00;;;;;;5041762;28;20048;-48
2022/03/26 04:33:41;;;;;;;31.63;17.15;;;6.60;55.00;;;;;;5062364;28;20045;-52
2022/03/26 04:36:10;;;;;;;33.17;19.25;;;6.60;55.00;;;;;;5069973;28;20047;-50
2022/03/26 04:38:40;;;;;;;33.35;18.50;;;6.60;55.10;;;;;;5062644;28;20037;-49
2022/03/26 04:41:14;;;;;;;31.63;17.55;;;6.60;55.10;;;;;;5058781;28;20041;-48
2022/03/26 04:43:41;;;;;;;30.80;18.25;;;6.50;55.00;;;;;;5070552;28;20083;-49
2022/03/26 04:46:09;;;;;;;36.15;19.73;;;6.50;55.00;;;;;;5065596;28;20404;-48
2022/03/26 04:48:36;;;;;;;31.55;17.23;;;6.50;55.20;;;;;;5058404;28;20044;-46
2022/03/26 04:51:03;;;;;;;35.20;19.88;;;6.50;55.30;;;;;;5070782;28;20477;-49
2022/03/26 04:53:32;;;;;;;34.72;17.77;;;6.50;55.30;;;;;;5070481;28;20421;-46
2022/03/26 04:55:59;;;;;;;31.67;16.75;;;6.40;55.30;;;;;;5063329;28;20064;-46
2022/03/26 04:58:26;;;;;;;27.67;17.05;;;6.40;55.40;;;;;;5046150;28;20076;-49
2022/03/26 05:00:52;;;;;;;32.38;16.92;;;6.40;55.50;;;;;;5064658;28;20288;-46
2022/03/26 05:03:19;;;;;;;28.52;16.73;;;6.40;55.40;;;;;;5070482;28;20048;-47
2022/03/26 05:05:48;;;;;;;29.85;17.70;;;6.40;55.30;;;;;;5052990;28;20088;-49
2022/03/26 05:08:15;;;;;;;31.65;17.50;;;6.40;55.40;;;;;;5057669;28;20071;-49
2022/03/26 05:10:44;;;;;;;34.88;17.92;;;6.40;56.10;;;;;;5070496;28;20045;-47
2022/03/26 05:13:11;;;;;;;31.20;17.83;;;6.40;55.50;;;;;;5059631;28;20135;-47
2022/03/26 05:15:38;;;;;;;37.33;18.35;;;6.40;55.50;;;;;;5047440;28;20044;-47
2022/03/26 05:18:07;;;;;;;31.75;17.58;;;6.30;55.60;;;;;;5049732;28;20052;-51
2022/03/26 05:20:37;;;;;;;33.95;18.75;;;6.30;55.70;;;;;;5067558;28;20500;-47
2022/03/26 05:23:05;;;;;;;28.63;16.25;;;6.30;55.60;;;;;;5070182;28;20036;-50
2022/03/26 05:25:34;;;;;;;28.02;17.48;;;6.30;55.60;;;;;;5053949;28;20047;-49
2022/03/26 05:28:03;;;;;;;29.65;17.13;;;6.30;55.60;;;;;;5056750;28;20588;-46
2022/03/26 05:30:33;;;;;;;31.65;17.05;;;6.30;55.60;;;;;;5070187;28;20048;-47
2022/03/26 05:33:02;;;;;;;30.42;17.13;;;6.20;55.60;;;;;;5069055;28;20100;-46
2022/03/26 05:35:34;;;;;;;32.00;17.05;;;6.20;55.80;;;;;;5057062;28;20558;-50
2022/03/26 05:38:01;;;;;;;;;;;6.20;55.70;;;;;;5068733;28;20455;-48
2022/03/26 05:40:32;;;;;;;26.75;16.08;;;6.30;56.40;;;;;;5070108;28;19993;-47
2022/03/26 05:43:01;;;;;;;30.92;17.40;;;6.20;55.30;;;;;;5070305;28;20082;-47
2022/03/26 05:45:29;;;;;;;29.80;16.95;;;6.20;55.50;;;;;;5053339;28;20538;-46
2022/03/26 05:48:01;;;;;;;30.60;17.38;;;6.20;55.70;;;;;;5064978;28;20040;-49
2022/03/26 05:50:29;;;;;;;29.80;17.00;;;6.20;56.00;;;;;;5069986;28;20049;-47
2022/03/26 05:52:56;;;;;;;28.30;16.90;;;6.20;56.10;;;;;;5054753;28;20040;-52
2022/03/26 05:55:25;;;;;;;31.15;16.63;;;6.40;56.30;;;;;;5047421;28;20044;-50
2022/03/26 05:57:58;;;;;;;27.73;16.85;;;6.20;56.30;;;;;;5054543;28;20068;-49
2022/03/26 06:00:25;;;;;;;32.08;17.20;;;6.20;56.40;;;;;;5069866;28;20033;-46
2022/03/26 06:02:54;;;;;;;30.80;16.60;;;6.20;56.50;;;;;;5056721;28;20033;-47
2022/03/26 06:05:21;;;;;;;31.55;17.98;;;6.20;56.80;;;;;;5068131;28;20040;-51
2022/03/26 06:07:48;;;;;;;31.25;17.50;;;6.20;56.70;;;;;;5066182;28;20072;-49
2022/03/26 06:10:14;;;;;;;32.65;18.75;;;6.20;56.80;;;;;;5047651;28;20106;-47
2022/03/26 06:12:45;;;;;;;34.17;19.80;;;6.30;57.00;;;;;;5050099;28;20043;-47
2022/03/26 06:15:14;;;;;;;34.28;18.23;;;6.30;57.10;;;;;;5048729;28;20042;-48
2022/03/26 06:18:02;;;;;;;36.72;19.35;;;6.30;57.30;;;;;;5040950;28;20129;-49
2022/03/26 06:20:31;;;;;;;34.78;18.95;;;6.40;57.30;;;;;;5038066;28;20045;-50
2022/03/26 06:22:58;;;;;;;36.53;19.10;;;6.40;57.50;;;;;;5047489;28;20437;-46
2022/03/26 06:25:30;;;;;;;;;;;6.60;57.70;;;;;;5043628;28;20555;-47
2022/03/26 06:27:57;;;;;;;27.13;17.45;;;6.60;58.50;;;;;;5042281;28;19921;-46
2022/03/26 06:30:24;;;;;;;33.03;19.00;;;6.60;57.20;;;;;;5038084;28;20107;-51
2022/03/26 06:32:52;;;;;;;35.13;20.30;;;6.60;57.70;;;;;;5045070;28;20048;-47
2022/03/26 06:35:19;;;;;;;37.25;19.67;;;6.70;58.10;;;;;;5045436;28;20041;-46
2022/03/26 06:37:46;;;;;;;36.50;20.10;;;6.70;58.30;;;;;;5039351;28;20041;-47
2022/03/26 06:40:13;;;;;;;33.97;18.98;;;6.80;58.40;;;;;;5037493;28;20052;-47
2022/03/26 06:42:40;;;;;;;37.38;20.38;;;6.80;58.40;;;;;;5055046;28;20045;-47
2022/03/26 06:45:07;;;;;;;33.72;19.67;;;6.90;58.50;;;;;;5069431;28;20037;-46
2022/03/26 06:47:34;;;;;;;32.40;19.88;;;7.00;58.60;;;;;;5072886;28;20044;-49
2022/03/26 06:50:01;;;;;;;34.25;20.25;;;7.00;58.60;;;;;;5053812;28;20052;-47
2022/03/26 06:52:27;;;;;;;36.95;18.98;;;7.10;58.70;;;;;;5066043;28;20099;-51
2022/03/26 06:54:54;;;;;;;33.33;20.15;;;7.20;58.70;;;;;;5042933;28;20627;-50
2022/03/26 06:57:23;;;;;;;34.90;19.65;;;7.20;58.80;;;;;;5056419;28;20102;-48
2022/03/26 06:59:50;;;;;;;34.70;20.60;;;7.30;58.90;;;;;;5044844;28;20540;-52
2022/03/26 07:02:19;;;;;;;37.40;20.83;;;7.30;58.90;;;;;;5065474;28;20499;-50
2022/03/26 07:04:46;;;;;;;35.38;20.20;;;7.40;59.00;;;;;;5070268;28;20048;-56
2022/03/26 07:07:13;;;;;;;32.53;20.38;;;7.50;59.10;;;;;;5061994;28;20124;-53
2022/03/26 07:09:41;;;;;;;39.63;21.40;;;7.50;59.20;;;;;;5039698;28;20053;-50
2022/03/26 07:12:11;;;;;;;33.20;19.52;;;7.60;59.50;;;;;;5059328;28;20497;-49
2022/03/26 07:14:38;;;;;;;34.03;19.13;;;7.60;59.90;;;;;;5060354;28;20099;-48
2022/03/26 07:17:05;;;;;;;33.17;20.13;;;7.70;60.30;;;;;;5058674;28;20466;-50
2022/03/26 07:19:32;;;;;;;39.72;22.25;;;7.80;59.90;;;;;;5070029;28;20041;-47
2022/03/26 07:21:59;;;;;;;36.30;20.63;;;7.90;60.30;;;;;;5044679;28;20096;-57
2022/03/26 07:24:26;;;;;;;33.40;20.20;;;7.90;60.60;;;;;;5009976;28;20044;-52
2022/03/26 07:26:56;;;;;;;34.95;21.48;;;8.10;60.80;;;;;;5038769;28;20048;-51
2022/03/26 07:29:22;;;;;;;38.38;21.52;;;8.20;61.10;;;;;;5028281;28;20041;-52
2022/03/26 07:31:49;;;;;;;36.13;22.10;;;8.30;60.90;;;;;;5051776;28;20046;-49
2022/03/26 07:34:17;;;;;;;35.58;21.48;;;8.40;61.00;;;;;;5029320;28;20135;-49
2022/03/26 07:36:44;;;;;;;37.60;22.90;;;8.50;61.00;;;;;;5046810;28;20053;-49
2022/03/26 07:39:12;;;;;;;37.38;22.33;;;8.60;61.10;;;;;;5032074;28;20087;-53
2022/03/26 07:41:39;;;;;;;37.65;23.55;;;8.80;61.00;;;;;;5046627;28;20591;-48
2022/03/26 07:44:07;;;;;;;35.05;22.63;;;8.90;60.90;;;;;;5035150;28;20047;-50
2022/03/26 07:46:34;;;;;;;39.53;22.65;;;9.10;60.80;;;;;;5039538;28;20087;-51
2022/03/26 07:49:01;;;;;;;41.67;23.15;;;9.20;60.50;;;;;;5038294;28;20088;-48
2022/03/26 07:51:28;;;;;;;39.45;24.25;;;9.40;60.40;;;;;;5044100;28;20075;-50
2022/03/26 07:53:55;;;;;;;36.22;23.35;;;9.50;60.30;;;;;;5031379;28;20408;-49
2022/03/26 07:56:23;;;;;;;38.53;23.90;;;9.60;60.20;;;;;;5041600;28;20048;-47
2022/03/26 07:58:50;;;;;;;37.20;24.48;;;9.70;60.00;;;;;;5036362;28;20082;-52
2022/03/26 08:01:17;;;;;;;40.40;24.17;;;9.90;60.00;;;;;;5033879;28;20046;-51
2022/03/26 08:03:44;;;;;;;38.33;24.13;;;10.00;59.80;;;;;;5024722;28;20099;-49
2022/03/26 08:06:10;;;;;;;44.45;25.70;;;10.10;59.70;;;;;;5046980;28;20071;-50
2022/03/26 08:08:40;;;;;;;40.38;27.08;;;10.20;59.60;;;;;;5029977;28;20041;-53
2022/03/26 08:11:07;;;;;;;39.15;27.02;;;10.30;59.50;;;;;;5048778;28;20048;-48
2022/03/26 08:13:34;;;;;;;42.50;27.35;;;10.40;59.50;;;;;;5041870;28;20045;-51
2022/03/26 08:16:03;;;;;;;40.17;26.75;;;10.50;59.20;;;;;;5040470;28;20045;-50
2022/03/26 08:18:30;;;;;;;39.92;26.55;;;10.60;59.00;;;;;;5031705;28;20041;-53
2022/03/26 08:21:03;;;;;;;43.67;26.00;;;10.70;58.80;;;;;;5041522;28;20045;-52
2022/03/26 08:23:30;;;;;;;49.28;28.60;;;10.80;58.60;;;;;;5038272;28;20038;-52
2022/03/26 08:28:42;;;;;;;42.15;27.35;;;11.00;58.30;;;;;;5032332;28;20512;-53
2022/03/26 08:31:10;;;;;;;45.58;28.50;;;11.20;58.10;;;;;;5055867;28;20113;-50
2022/03/26 08:33:37;;;;;;;43.78;27.52;;;11.20;57.90;;;;;;5042580;28;20091;-50
2022/03/26 08:36:04;;;;;;;40.95;27.27;;;11.40;57.90;;;;;;5041776;28;20093;-49
2022/03/26 08:38:31;;;;;;;47.22;28.15;;;11.40;57.60;;;;;;5038494;28;20684;-50
2022/03/26 08:41:05;;;;;;;46.78;28.85;;;11.50;57.30;;;;;;5068201;28;20043;-50
2022/03/26 08:43:37;;;;;;;43.53;27.83;;;11.60;57.30;;;;;;5052631;28;20053;-49
2022/03/26 08:46:06;;;;;;;45.10;27.33;;;11.70;57.10;;;;;;5063437;28;20071;-53
2022/03/26 08:48:33;;;;;;;42.72;27.52;;;11.80;57.20;;;;;;5067902;28;20695;-50
2022/03/26 08:51:00;;;;;;;45.15;28.42;;;11.90;56.70;;;;;;5064429;28;20068;-50
2022/03/26 08:53:32;;;;;;;44.10;26.70;;;12.00;56.30;;;;;;5046602;28;20618;-51
2022/03/26 08:56:00;;;;;;;42.53;27.33;;;12.10;56.00;;;;;;5006600;28;20552;-54
2022/03/26 08:58:27;;;;;;;41.75;27.08;;;12.20;55.70;;;;;;5040199;28;20060;-47
2022/03/26 09:00:54;;;;;;;40.47;26.60;;;12.30;55.70;;;;;;5027912;28;20139;-50
2022/03/26 09:03:21;;;;;;;44.20;26.42;;;12.40;55.40;;;;;;5043150;28;20576;-52
2022/03/26 09:05:55;;;;;;;37.65;25.25;;;12.50;55.20;;;;;;5033384;28;20154;-53
2022/03/26 09:08:22;;;;;;;37.40;26.27;;;12.60;55.20;;;;;;5028317;28;20116;-48
2022/03/26 09:10:49;;;;;;;45.50;26.85;;;12.70;55.20;;;;;;5043395;28;20045;-47
2022/03/26 09:13:16;;;;;;;41.10;25.80;;;12.80;54.80;;;;;;5059189;28;20079;-50
2022/03/26 09:15:42;;;;;;;40.00;26.98;;;12.90;54.60;;;;;;5045852;28;20103;-54
2022/03/26 09:18:09;;;;;;;40.70;25.83;;;13.00;54.30;;;;;;5034985;28;20080;-50
2022/03/26 09:20:38;;;;;;;40.25;27.25;;;13.00;54.10;;;;;;5034227;28;20041;-50
2022/03/26 09:23:05;;;;;;;43.78;25.92;;;13.10;54.10;;;;;;5055394;28;20059;-50
2022/03/26 09:25:36;;;;;;;41.30;25.05;;;13.20;54.00;;;;;;5042683;28;20045;-51
2022/03/26 09:28:06;;;;;;;44.70;27.23;;;13.30;53.80;;;;;;5034910;28;20100;-53
2022/03/26 09:30:39;;;;;;;40.13;25.48;;;13.40;53.70;;;;;;5052625;28;20048;-48
2022/03/26 09:33:10;;;;;;;41.15;24.98;;;13.50;53.70;;;;;;5064847;28;20048;-48
2022/03/26 09:35:37;;;;;;;38.92;24.05;;;13.50;53.50;;;;;;5051517;28;20465;-50
2022/03/26 09:38:04;;;;;;;43.10;25.83;;;13.60;53.30;;;;;;5048969;28;20102;-48
2022/03/26 09:40:34;;;;;;;41.22;24.40;;;13.70;53.20;;;;;;5055834;28;20049;-49
2022/03/26 09:43:04;;;;;;;42.38;24.70;;;13.80;52.80;;;;;;5069888;28;20094;-48
2022/03/26 09:45:33;;;;;;;38.83;24.38;;;13.90;52.40;;;;;;5067907;28;20119;-53
2022/03/26 09:48:02;;;;;;;41.35;24.65;;;13.90;52.20;;;;;;5047554;28;20107;-52
2022/03/26 09:50:29;;;;;;;43.33;25.85;;;14.00;52.30;;;;;;5066327;28;20056;-48
2022/03/26 09:52:56;;;;;;;37.13;24.50;;;14.10;52.00;;;;;;5070590;28;20098;-51
2022/03/26 09:55:25;;;;;;;34.75;23.40;;;14.20;52.10;;;;;;5061850;28;20099;-48
2022/03/26 09:57:52;;;;;;;44.40;27.17;;;14.30;51.90;;;;;;5051356;28;20036;-50
2022/03/26 10:00:19;;;;;;;44.95;26.05;;;14.30;52.30;;;;;;5057606;28;20124;-49
2022/03/26 10:02:48;;;;;;;40.35;25.25;;;14.40;52.00;;;;;;5070063;28;20044;-53
2022/03/26 10:05:18;;;;;;;38.03;22.60;;;14.50;52.20;;;;;;5068937;28;20097;-50
2022/03/26 10:07:47;;;;;;;37.95;23.27;;;14.60;52.10;;;;;;5057400;28;20068;-49
2022/03/26 10:10:23;;;;;;;36.40;22.35;;;14.70;51.40;;;;;;5053207;28;20045;-47
2022/03/26 10:12:51;;;;;;;32.75;22.08;;;14.80;51.10;;;;;;5065791;28;20052;-49
2022/03/26 10:15:18;;;;;;;39.60;24.92;;;14.90;51.00;;;;;;5064301;28;20037;-47
2022/03/26 10:17:46;;;;;;;39.42;25.67;;;15.00;51.10;;;;;;5044010;28;20049;-47
2022/03/26 10:20:14;;;;;;;41.10;24.85;;;15.10;50.50;;;;;;5065414;28;20043;-48
2022/03/26 10:22:48;;;;;;;38.08;23.75;;;15.20;50.30;;;;;;5073368;28;20040;-48
2022/03/26 10:25:21;;;;;;;40.25;24.95;;;15.30;50.00;;;;;;5061571;28;20072;-47
2022/03/26 10:27:55;;;;;;;40.90;25.23;;;15.30;49.90;;;;;;5072120;28;20040;-49
2022/03/26 10:33:21;;;;;;;39.08;24.02;;;15.60;50.20;;;;;;5052338;28;20045;-50
2022/03/26 10:35:54;;;;;;;44.15;24.58;;;15.60;49.70;;;;;;5050614;28;20100;-52
2022/03/26 10:38:30;;;;;;;42.30;24.77;;;15.80;50.70;;;;;;5070858;28;20093;-52
2022/03/26 10:41:08;;;;;;;42.67;26.80;;;15.80;49.50;;;;;;5032869;28;20042;-50
2022/03/26 10:43:39;;;;;;;42.92;26.45;;;15.90;49.30;;;;;;5041195;28;20124;-50
2022/03/26 10:46:06;;;;;;;41.95;25.77;;;16.00;49.00;;;;;;5067777;28;20045;-48
2022/03/26 10:48:35;;;;;;;48.28;26.55;;;16.10;49.40;;;;;;5072838;28;20040;-49
2022/03/26 10:51:25;;;;;;;43.35;27.17;;;16.10;49.20;;;;;;5062273;28;20041;-49
2022/03/26 10:53:54;;;;;;;35.47;23.60;;;16.20;48.70;;;;;;5064147;28;20516;-52
2022/03/26 10:56:22;;;;;;;40.33;24.88;;;16.30;48.70;;;;;;5064649;28;20106;-48
2022/03/26 10:58:49;;;;;;;37.17;22.67;;;16.30;48.50;;;;;;5071456;28;20516;-52
2022/03/26 11:01:16;;;;;;;38.25;22.90;;;16.40;47.90;;;;;;5072343;28;20037;-50
2022/03/26 11:03:43;;;;;;;40.38;22.30;;;16.50;47.60;;;;;;5062296;28;20102;-52
2022/03/26 11:06:13;;;;;;;36.22;20.85;;;16.60;47.00;;;;;;5068314;28;20074;-49
2022/03/26 11:08:41;;;;;;;38.28;23.05;;;16.70;47.10;;;;;;5060402;28;20037;-50
2022/03/26 11:11:11;;;;;;;33.17;22.27;;;16.70;46.80;;;;;;5022044;28;20060;-51
2022/03/26 11:13:50;;;;;;;40.45;21.48;;;16.80;46.70;;;;;;5038313;28;20071;-55
2022/03/26 11:17:01;;;;;;;34.28;22.05;;;16.80;46.10;;;;;;5034442;28;20037;-52
2022/03/26 11:19:58;;;;;;;29.98;19.45;;;16.90;46.40;;;;;;5018761;28;20060;-50
2022/03/26 11:22:49;;;;;;;30.63;20.60;;;17.00;46.40;;;;;;5029591;28;20692;-50
2022/03/26 11:25:49;;;;;;;37.08;20.58;;;17.10;46.30;;;;;;5058817;28;20111;-54
2022/03/26 11:28:36;;;;;;;31.30;19.88;;;17.10;46.10;;;;;;5031130;28;20500;-52
2022/03/26 11:31:14;;;;;;;30.52;18.38;;;17.20;46.20;;;;;;5034556;28;20095;-54
2022/03/26 11:33:41;;;;;;;31.70;18.92;;;17.30;45.10;;;;;;5042010;28;20039;-50
2022/03/26 11:36:09;;;;;;;33.80;19.27;;;17.30;45.10;;;;;;5054955;28;20048;-48
2022/03/26 11:38:36;;;;;;;29.60;17.10;;;17.30;44.80;;;;;;5041259;28;20049;-49
2022/03/26 11:41:08;;;;;;;29.27;19.00;;;17.40;44.50;;;;;;5032168;28;20041;-58
2022/03/26 11:43:44;;;;;;;30.30;19.25;;;17.50;44.70;;;;;;5045017;28;20095;-52
2022/03/26 11:52:11;;;;;;;24.30;13.43;;;17.70;44.10;;;;;;5033993;28;20040;-53
2022/03/26 11:54:37;;;;;;;19.65;13.50;;;17.80;43.00;;;;;;5056704;28;20067;-48
2022/03/26 11:57:08;;;;;;;19.70;13.10;;;17.90;43.20;;;;;;5030572;28;20146;-55
2022/03/26 11:59:39;;;;;;;26.55;15.10;;;18.00;43.30;;;;;;5044602;28;21009;-49
2022/03/26 12:02:22;;;;;;;23.85;15.13;;;18.00;42.80;;;;;;5042833;28;20044;-51
2022/03/26 12:04:54;;;;;;;22.08;14.10;;;18.10;42.80;;;;;;5028349;28;20054;-52
2022/03/26 12:07:23;;;;;;;26.52;14.60;;;18.20;42.80;;;;;;5028757;28;20096;-48
2022/03/26 12:10:06;;;;;;;22.48;14.95;;;18.20;43.00;;;;;;5053757;28;20048;-51
2022/03/26 12:13:02;;;;;;;24.35;15.10;;;18.30;43.00;;;;;;5033706;28;20131;-48
2022/03/26 12:15:34;;;;;;;21.63;15.13;;;18.40;43.10;;;;;;5053918;28;20045;-49
2022/03/26 12:18:14;;;;;;;23.02;13.68;;;18.40;42.80;;;;;;5040536;28;20075;-48
2022/03/26 12:20:46;;;;;;;23.52;13.80;;;18.50;42.50;;;;;;5064463;28;20037;-51
2022/03/26 12:23:15;;;;;;;23.92;13.18;;;18.50;42.20;;;;;;5030839;28;20099;-50
2022/03/26 12:25:49;;;;;;;23.30;13.00;;;18.70;42.50;;;;;;5042430;28;20042;-53
2022/03/26 12:28:31;;;;;;;24.65;15.13;;;18.70;42.10;;;;;;5034810;28;20040;-55
2022/03/26 12:31:04;;;;;;;22.98;14.80;;;18.80;42.20;;;;;;5052691;28;20037;-54
2022/03/26 12:33:39;;;;;;;19.42;14.55;;;19.10;42.30;;;;;;5042587;28;20041;-51
2022/03/26 12:36:06;;;;;;;24.02;13.35;;;18.90;42.00;;;;;;5024654;28;21295;-57
2022/03/26 12:38:33;;;;;;;21.23;14.80;;;19.00;41.80;;;;;;5043084;28;20522;-52
2022/03/26 12:41:05;;;;;;;19.35;12.95;;;19.00;42.00;;;;;;5055356;28;20609;-57
2022/03/26 12:43:32;;;;;;;22.93;13.63;;;19.10;41.80;;;;;;5031107;28;20056;-55
2022/03/26 12:46:01;;;;;;;21.55;14.85;;;19.10;41.70;;;;;;5042872;28;20498;-58
2022/03/26 12:48:29;;;;;;;19.20;12.93;;;19.20;41.90;;;;;;5039063;28;20045;-52
2022/03/26 12:51:02;;;;;;;24.02;13.35;;;19.30;42.10;;;;;;5064032;28;20056;-55
2022/03/26 12:53:40;;;;;;;20.38;12.40;;;19.30;41.80;;;;;;5036606;28;20045;-50
2022/03/26 12:56:10;;;;;;;20.17;12.30;;;19.40;41.30;;;;;;5026962;28;20041;-52